This is the latest recevied weather packets stored in our database for station/object JS2WAD-13. If no packets are shown the sender has not sent any weather packets the latest 10 day(s).
| Time | Temp. | Humidity | Pressure | Rain* | Wind** | Luminosity | Snow |
|---|---|---|---|---|---|---|---|
| 1778110278 | 20° C | 77% | 905.4 hPa | 0 mm | - | 111 W/m² | - |
| 1778109978 | 20° C | 82% | 905.4 hPa | 0 mm | - | 141 W/m² | - |
| 1778109678 | 19.44° C | 84% | 905.2 hPa | 0 mm | - | 118 W/m² | - |
| 1778109378 | 19.44° C | 77% | 905.5 hPa | 0 mm | - | 81 W/m² | - |
| 1778109078 | 19.44° C | 83% | 905.5 hPa | 0 mm | - | 91 W/m² | - |
| 1778108778 | 19.44° C | 81% | 905.6 hPa | 0 mm | - | 91 W/m² | - |
| 1778108478 | 18.89° C | 83% | 905.8 hPa | 0 mm | - | 97 W/m² | - |
| 1778108178 | 18.89° C | 79% | 905.9 hPa | 0 mm | - | 81 W/m² | - |
| 1778107878 | 18.89° C | 79% | 905.9 hPa | 0 mm | - | 90 W/m² | - |
| 1778107578 | 18.89° C | 79% | 905.9 hPa | 0 mm | - | 95 W/m² | - |
| 1778107278 | 18.33° C | 83% | 906.2 hPa | 0 mm | - | 104 W/m² | - |
| 1778106978 | 18.33° C | 82% | 906 hPa | 0 mm | - | 90 W/m² | - |
| 1778106678 | 18.33° C | 83% | 906.2 hPa | 0 mm | - | 72 W/m² | - |
| 1778106378 | 18.33° C | 83% | 906.2 hPa | 0 mm | - | 72 W/m² | - |
| 1778106078 | 18.33° C | 82% | 906.2 hPa | 0 mm | - | 74 W/m² | - |
| 1778105778 | 17.78° C | 81% | 906.4 hPa | 0 mm | - | 72 W/m² | - |
| 1778105478 | 17.78° C | 83% | 906.2 hPa | 0 mm | - | 72 W/m² | - |
| 1778105178 | 17.78° C | 82% | 906.1 hPa | 0 mm | - | 67 W/m² | - |
| 1778104878 | 17.78° C | 84% | 906.2 hPa | 0 mm | - | 51 W/m² | - |
| 1778104578 | 17.78° C | 84% | 906.1 hPa | 0 mm | - | 35 W/m² | - |
| 1778104278 | 17.78° C | 85% | 906.1 hPa | 0 mm | - | 33 W/m² | - |
| 1778103978 | 17.22° C | 86% | 906 hPa | 0 mm | - | 35 W/m² | - |
| 1778103678 | 17.22° C | 84% | 906.2 hPa | 0 mm | - | 32 W/m² | - |
| 1778103378 | 17.22° C | 84% | 906.4 hPa | 0 mm | - | 42 W/m² | - |
| 1778103078 | 17.22° C | 84% | 906.3 hPa | 0 mm | - | 39 W/m² | - |
* Rain latest hour (hover to see other rain measurements)
** Current wind speed in m/s (hover to see current wind gust speed)